sensor_id;sensor_type;location;lat;lon;timestamp;P1;durP1;ratioP1;P2;durP2;ratioP2
20699;SDS011;10511;51.232;9.420;2023-06-14T00:00:15;0.70;;;0.70;;
20699;SDS011;10511;51.232;9.420;2023-06-14T00:02:42;0.80;;;0.80;;
20699;SDS011;10511;51.232;9.420;2023-06-14T00:05:09;0.70;;;0.70;;
20699;SDS011;10511;51.232;9.420;2023-06-14T00:07:38;0.67;;;0.67;;
20699;SDS011;10511;51.232;9.420;2023-06-14T00:10:08;0.60;;;0.60;;
20699;SDS011;10511;51.232;9.420;2023-06-14T00:12:35;0.70;;;0.70;;
20699;SDS011;10511;51.232;9.420;2023-06-14T00:15:03;0.70;;;0.70;;
20699;SDS011;10511;51.232;9.420;2023-06-14T00:17:32;0.80;;;0.80;;
20699;SDS011;10511;51.232;9.420;2023-06-14T00:19:59;0.70;;;0.70;;
20699;SDS011;10511;51.232;9.420;2023-06-14T00:22:28;0.70;;;0.70;;
20699;SDS011;10511;51.232;9.420;2023-06-14T00:24:56;0.70;;;0.70;;
20699;SDS011;10511;51.232;9.420;2023-06-14T00:27:22;0.70;;;0.70;;
20699;SDS011;10511;51.232;9.420;2023-06-14T00:29:49;0.70;;;0.70;;
20699;SDS011;10511;51.232;9.420;2023-06-14T00:34:52;0.70;;;0.70;;
20699;SDS011;10511;51.232;9.420;2023-06-14T00:37:18;0.80;;;0.80;;
20699;SDS011;10511;51.232;9.420;2023-06-14T00:39:45;0.80;;;0.80;;
20699;SDS011;10511;51.232;9.420;2023-06-14T00:42:22;0.70;;;0.70;;
20699;SDS011;10511;51.232;9.420;2023-06-14T00:44:49;0.80;;;0.80;;
20699;SDS011;10511;51.232;9.420;2023-06-14T00:47:17;0.70;;;0.70;;
20699;SDS011;10511;51.232;9.420;2023-06-14T00:49:44;0.70;;;0.70;;
20699;SDS011;10511;51.232;9.420;2023-06-14T00:52:13;0.70;;;0.70;;
20699;SDS011;10511;51.232;9.420;2023-06-14T00:54:41;0.70;;;0.70;;
20699;SDS011;10511;51.232;9.420;2023-06-14T00:57:08;0.70;;;0.70;;
20699;SDS011;10511;51.232;9.420;2023-06-14T00:59:37;0.70;;;0.70;;
20699;SDS011;10511;51.232;9.420;2023-06-14T01:02:07;0.80;;;0.80;;
20699;SDS011;10511;51.232;9.420;2023-06-14T01:04:35;0.80;;;0.80;;
20699;SDS011;10511;51.232;9.420;2023-06-14T01:07:10;0.70;;;0.70;;
20699;SDS011;10511;51.232;9.420;2023-06-14T01:09:47;0.80;;;0.80;;
20699;SDS011;10511;51.232;9.420;2023-06-14T01:12:25;0.80;;;0.80;;
20699;SDS011;10511;51.232;9.420;2023-06-14T01:15:00;0.70;;;0.70;;
20699;SDS011;10511;51.232;9.420;2023-06-14T01:17:28;0.80;;;0.80;;
20699;SDS011;10511;51.232;9.420;2023-06-14T01:19:58;0.80;;;0.80;;
20699;SDS011;10511;51.232;9.420;2023-06-14T01:22:26;0.80;;;0.80;;
20699;SDS011;10511;51.232;9.420;2023-06-14T01:24:55;0.80;;;0.80;;
20699;SDS011;10511;51.232;9.420;2023-06-14T01:27:23;0.73;;;0.73;;
20699;SDS011;10511;51.232;9.420;2023-06-14T01:29:53;0.77;;;0.77;;
20699;SDS011;10511;51.232;9.420;2023-06-14T01:32:22;0.80;;;0.80;;
20699;SDS011;10511;51.232;9.420;2023-06-14T01:34:50;0.80;;;0.80;;
20699;SDS011;10511;51.232;9.420;2023-06-14T01:37:17;0.80;;;0.80;;
20699;SDS011;10511;51.232;9.420;2023-06-14T01:39:45;0.80;;;0.80;;
20699;SDS011;10511;51.232;9.420;2023-06-14T01:42:15;0.70;;;0.70;;
20699;SDS011;10511;51.232;9.420;2023-06-14T01:44:43;0.77;;;0.77;;
20699;SDS011;10511;51.232;9.420;2023-06-14T01:47:11;0.67;;;0.67;;
20699;SDS011;10511;51.232;9.420;2023-06-14T01:49:38;0.80;;;0.80;;
20699;SDS011;10511;51.232;9.420;2023-06-14T01:52:06;0.70;;;0.70;;
20699;SDS011;10511;51.232;9.420;2023-06-14T01:54:34;0.80;;;0.80;;
20699;SDS011;10511;51.232;9.420;2023-06-14T01:57:06;0.70;;;0.70;;
20699;SDS011;10511;51.232;9.420;2023-06-14T01:59:35;0.80;;;0.80;;
20699;SDS011;10511;51.232;9.420;2023-06-14T02:02:02;0.80;;;0.80;;
20699;SDS011;10511;51.232;9.420;2023-06-14T02:04:29;0.70;;;0.70;;
20699;SDS011;10511;51.232;9.420;2023-06-14T02:06:56;0.80;;;0.80;;
20699;SDS011;10511;51.232;9.420;2023-06-14T02:09:23;0.80;;;0.80;;
20699;SDS011;10511;51.232;9.420;2023-06-14T02:11:50;0.80;;;0.80;;
20699;SDS011;10511;51.232;9.420;2023-06-14T02:14:16;0.70;;;0.70;;
20699;SDS011;10511;51.232;9.420;2023-06-14T02:16:45;0.80;;;0.80;;
20699;SDS011;10511;51.232;9.420;2023-06-14T02:19:14;0.70;;;0.70;;
20699;SDS011;10511;51.232;9.420;2023-06-14T02:21:41;0.70;;;0.70;;
20699;SDS011;10511;51.232;9.420;2023-06-14T02:24:08;0.80;;;0.80;;
20699;SDS011;10511;51.232;9.420;2023-06-14T02:26:35;0.80;;;0.80;;
20699;SDS011;10511;51.232;9.420;2023-06-14T02:29:02;0.80;;;0.80;;
20699;SDS011;10511;51.232;9.420;2023-06-14T02:31:30;0.80;;;0.80;;
20699;SDS011;10511;51.232;9.420;2023-06-14T02:33:58;0.70;;;0.70;;
20699;SDS011;10511;51.232;9.420;2023-06-14T02:36:25;0.80;;;0.80;;
20699;SDS011;10511;51.232;9.420;2023-06-14T02:38:52;0.80;;;0.80;;
20699;SDS011;10511;51.232;9.420;2023-06-14T02:41:19;0.80;;;0.80;;
20699;SDS011;10511;51.232;9.420;2023-06-14T02:43:46;0.70;;;0.70;;
20699;SDS011;10511;51.232;9.420;2023-06-14T02:46:13;0.90;;;0.90;;
20699;SDS011;10511;51.232;9.420;2023-06-14T02:48:40;0.70;;;0.70;;
20699;SDS011;10511;51.232;9.420;2023-06-14T02:51:08;0.80;;;0.80;;
20699;SDS011;10511;51.232;9.420;2023-06-14T02:53:35;0.80;;;0.80;;
20699;SDS011;10511;51.232;9.420;2023-06-14T02:56:02;0.90;;;0.90;;
20699;SDS011;10511;51.232;9.420;2023-06-14T02:58:30;0.80;;;0.80;;
20699;SDS011;10511;51.232;9.420;2023-06-14T03:00:58;0.80;;;0.80;;
20699;SDS011;10511;51.232;9.420;2023-06-14T03:03:27;0.90;;;0.90;;
20699;SDS011;10511;51.232;9.420;2023-06-14T03:05:54;0.90;;;0.90;;
20699;SDS011;10511;51.232;9.420;2023-06-14T03:08:23;0.80;;;0.80;;
20699;SDS011;10511;51.232;9.420;2023-06-14T03:10:52;0.80;;;0.80;;
20699;SDS011;10511;51.232;9.420;2023-06-14T03:13:21;0.90;;;0.90;;
20699;SDS011;10511;51.232;9.420;2023-06-14T03:15:48;0.70;;;0.70;;
20699;SDS011;10511;51.232;9.420;2023-06-14T03:18:15;0.80;;;0.80;;
20699;SDS011;10511;51.232;9.420;2023-06-14T03:20:42;0.90;;;0.90;;
20699;SDS011;10511;51.232;9.420;2023-06-14T03:23:10;0.80;;;0.80;;
20699;SDS011;10511;51.232;9.420;2023-06-14T03:25:38;0.90;;;0.90;;
20699;SDS011;10511;51.232;9.420;2023-06-14T03:28:07;0.90;;;0.90;;
20699;SDS011;10511;51.232;9.420;2023-06-14T03:30:34;0.80;;;0.80;;
20699;SDS011;10511;51.232;9.420;2023-06-14T03:33:01;0.90;;;0.90;;
20699;SDS011;10511;51.232;9.420;2023-06-14T03:35:28;0.80;;;0.80;;
20699;SDS011;10511;51.232;9.420;2023-06-14T03:37:55;0.80;;;0.80;;
20699;SDS011;10511;51.232;9.420;2023-06-14T03:40:21;0.80;;;0.80;;
20699;SDS011;10511;51.232;9.420;2023-06-14T03:42:52;0.90;;;0.90;;
20699;SDS011;10511;51.232;9.420;2023-06-14T03:45:22;0.90;;;0.90;;
20699;SDS011;10511;51.232;9.420;2023-06-14T03:47:50;0.80;;;0.80;;
20699;SDS011;10511;51.232;9.420;2023-06-14T03:50:18;0.80;;;0.80;;
20699;SDS011;10511;51.232;9.420;2023-06-14T03:52:45;0.80;;;0.80;;
20699;SDS011;10511;51.232;9.420;2023-06-14T03:55:13;0.90;;;0.90;;
20699;SDS011;10511;51.232;9.420;2023-06-14T03:57:41;0.80;;;0.80;;
20699;SDS011;10511;51.232;9.420;2023-06-14T04:00:11;0.90;;;0.90;;
20699;SDS011;10511;51.232;9.420;2023-06-14T04:02:42;0.80;;;0.80;;
20699;SDS011;10511;51.232;9.420;2023-06-14T04:05:10;0.80;;;0.80;;
20699;SDS011;10511;51.232;9.420;2023-06-14T04:07:38;0.70;;;0.70;;
20699;SDS011;10511;51.232;9.420;2023-06-14T04:10:10;0.80;;;0.80;;
20699;SDS011;10511;51.232;9.420;2023-06-14T04:12:37;0.80;;;0.80;;
20699;SDS011;10511;51.232;9.420;2023-06-14T04:15:04;0.80;;;0.80;;
20699;SDS011;10511;51.232;9.420;2023-06-14T04:17:34;0.80;;;0.80;;
20699;SDS011;10511;51.232;9.420;2023-06-14T04:20:02;0.90;;;0.90;;
20699;SDS011;10511;51.232;9.420;2023-06-14T04:22:31;0.80;;;0.80;;
20699;SDS011;10511;51.232;9.420;2023-06-14T04:24:58;0.80;;;0.80;;
20699;SDS011;10511;51.232;9.420;2023-06-14T04:27:31;0.90;;;0.90;;
20699;SDS011;10511;51.232;9.420;2023-06-14T04:30:07;0.80;;;0.80;;
20699;SDS011;10511;51.232;9.420;2023-06-14T04:32:35;0.80;;;0.80;;
20699;SDS011;10511;51.232;9.420;2023-06-14T04:35:04;0.80;;;0.80;;
20699;SDS011;10511;51.232;9.420;2023-06-14T04:37:31;0.80;;;0.80;;
20699;SDS011;10511;51.232;9.420;2023-06-14T04:39:59;0.80;;;0.80;;
20699;SDS011;10511;51.232;9.420;2023-06-14T04:42:29;0.87;;;0.87;;
20699;SDS011;10511;51.232;9.420;2023-06-14T04:44:57;0.90;;;0.90;;
20699;SDS011;10511;51.232;9.420;2023-06-14T04:47:24;0.80;;;0.80;;
20699;SDS011;10511;51.232;9.420;2023-06-14T04:49:56;0.80;;;0.80;;
20699;SDS011;10511;51.232;9.420;2023-06-14T04:52:25;0.80;;;0.80;;
20699;SDS011;10511;51.232;9.420;2023-06-14T04:54:54;0.80;;;0.80;;
20699;SDS011;10511;51.232;9.420;2023-06-14T04:57:21;0.80;;;0.80;;
20699;SDS011;10511;51.232;9.420;2023-06-14T04:59:50;0.80;;;0.80;;
20699;SDS011;10511;51.232;9.420;2023-06-14T05:02:20;0.73;;;0.73;;
20699;SDS011;10511;51.232;9.420;2023-06-14T05:04:48;0.70;;;0.70;;
20699;SDS011;10511;51.232;9.420;2023-06-14T05:07:16;0.80;;;0.80;;
20699;SDS011;10511;51.232;9.420;2023-06-14T05:09:44;0.90;;;0.90;;
20699;SDS011;10511;51.232;9.420;2023-06-14T05:12:11;0.90;;;0.90;;
20699;SDS011;10511;51.232;9.420;2023-06-14T05:14:38;0.83;;;0.83;;
20699;SDS011;10511;51.232;9.420;2023-06-14T05:17:05;0.90;;;0.90;;
20699;SDS011;10511;51.232;9.420;2023-06-14T05:19:32;0.80;;;0.80;;
20699;SDS011;10511;51.232;9.420;2023-06-14T05:21:59;0.80;;;0.80;;
20699;SDS011;10511;51.232;9.420;2023-06-14T05:24:29;0.80;;;0.80;;
20699;SDS011;10511;51.232;9.420;2023-06-14T05:26:57;0.80;;;0.80;;
20699;SDS011;10511;51.232;9.420;2023-06-14T05:29:24;0.70;;;0.70;;
20699;SDS011;10511;51.232;9.420;2023-06-14T05:31:51;0.77;;;0.77;;
20699;SDS011;10511;51.232;9.420;2023-06-14T05:34:18;0.80;;;0.80;;
20699;SDS011;10511;51.232;9.420;2023-06-14T05:36:45;0.70;;;0.70;;
20699;SDS011;10511;51.232;9.420;2023-06-14T05:39:11;0.70;;;0.70;;
20699;SDS011;10511;51.232;9.420;2023-06-14T05:41:41;0.70;;;0.70;;
20699;SDS011;10511;51.232;9.420;2023-06-14T05:44:08;0.80;;;0.80;;
20699;SDS011;10511;51.232;9.420;2023-06-14T05:46:35;0.77;;;0.77;;
20699;SDS011;10511;51.232;9.420;2023-06-14T05:49:02;0.70;;;0.70;;
20699;SDS011;10511;51.232;9.420;2023-06-14T05:51:29;0.80;;;0.80;;
20699;SDS011;10511;51.232;9.420;2023-06-14T05:53:55;0.80;;;0.80;;
20699;SDS011;10511;51.232;9.420;2023-06-14T05:56:22;0.80;;;0.80;;
20699;SDS011;10511;51.232;9.420;2023-06-14T05:58:52;0.80;;;0.80;;
20699;SDS011;10511;51.232;9.420;2023-06-14T06:01:19;0.70;;;0.70;;
20699;SDS011;10511;51.232;9.420;2023-06-14T06:03:46;0.80;;;0.80;;
20699;SDS011;10511;51.232;9.420;2023-06-14T06:06:13;0.70;;;0.70;;
20699;SDS011;10511;51.232;9.420;2023-06-14T06:08:41;0.70;;;0.70;;
20699;SDS011;10511;51.232;9.420;2023-06-14T06:11:08;0.70;;;0.70;;
20699;SDS011;10511;51.232;9.420;2023-06-14T06:13:35;0.80;;;0.80;;
20699;SDS011;10511;51.232;9.420;2023-06-14T06:16:05;0.80;;;0.80;;
20699;SDS011;10511;51.232;9.420;2023-06-14T06:18:32;0.80;;;0.80;;
20699;SDS011;10511;51.232;9.420;2023-06-14T06:20:59;0.70;;;0.70;;
20699;SDS011;10511;51.232;9.420;2023-06-14T06:23:28;0.87;;;0.87;;
20699;SDS011;10511;51.232;9.420;2023-06-14T06:25:55;0.80;;;0.80;;
20699;SDS011;10511;51.232;9.420;2023-06-14T06:28:21;0.80;;;0.80;;
20699;SDS011;10511;51.232;9.420;2023-06-14T06:30:48;0.70;;;0.70;;
20699;SDS011;10511;51.232;9.420;2023-06-14T06:33:16;0.80;;;0.80;;
20699;SDS011;10511;51.232;9.420;2023-06-14T06:35:43;0.80;;;0.80;;
20699;SDS011;10511;51.232;9.420;2023-06-14T06:38:10;0.80;;;0.80;;
20699;SDS011;10511;51.232;9.420;2023-06-14T06:40:37;0.77;;;0.77;;
20699;SDS011;10511;51.232;9.420;2023-06-14T06:43:04;0.80;;;0.80;;
20699;SDS011;10511;51.232;9.420;2023-06-14T06:45:31;0.73;;;0.73;;
20699;SDS011;10511;51.232;9.420;2023-06-14T06:47:58;0.80;;;0.80;;
20699;SDS011;10511;51.232;9.420;2023-06-14T06:50:26;0.80;;;0.80;;
20699;SDS011;10511;51.232;9.420;2023-06-14T06:52:53;0.80;;;0.80;;
20699;SDS011;10511;51.232;9.420;2023-06-14T06:55:20;0.80;;;0.80;;
20699;SDS011;10511;51.232;9.420;2023-06-14T06:57:47;0.80;;;0.80;;
20699;SDS011;10511;51.232;9.420;2023-06-14T07:00:15;0.70;;;0.70;;
20699;SDS011;10511;51.232;9.420;2023-06-14T07:02:42;0.80;;;0.80;;
20699;SDS011;10511;51.232;9.420;2023-06-14T07:05:09;0.80;;;0.80;;
20699;SDS011;10511;51.232;9.420;2023-06-14T07:07:37;0.80;;;0.80;;
20699;SDS011;10511;51.232;9.420;2023-06-14T07:10:04;0.80;;;0.80;;
20699;SDS011;10511;51.232;9.420;2023-06-14T07:12:32;0.80;;;0.80;;
20699;SDS011;10511;51.232;9.420;2023-06-14T07:15:04;0.80;;;0.80;;
20699;SDS011;10511;51.232;9.420;2023-06-14T07:17:32;0.70;;;0.70;;
20699;SDS011;10511;51.232;9.420;2023-06-14T07:19:59;0.70;;;0.70;;
20699;SDS011;10511;51.232;9.420;2023-06-14T07:22:30;0.70;;;0.70;;
20699;SDS011;10511;51.232;9.420;2023-06-14T07:24:58;0.80;;;0.80;;
20699;SDS011;10511;51.232;9.420;2023-06-14T07:27:25;0.80;;;0.80;;
20699;SDS011;10511;51.232;9.420;2023-06-14T07:29:52;0.80;;;0.80;;
20699;SDS011;10511;51.232;9.420;2023-06-14T07:32:19;0.80;;;0.80;;
20699;SDS011;10511;51.232;9.420;2023-06-14T07:34:46;0.80;;;0.80;;
20699;SDS011;10511;51.232;9.420;2023-06-14T07:37:12;0.73;;;0.73;;
20699;SDS011;10511;51.232;9.420;2023-06-14T07:39:39;0.70;;;0.70;;
20699;SDS011;10511;51.232;9.420;2023-06-14T07:42:08;0.70;;;0.70;;
20699;SDS011;10511;51.232;9.420;2023-06-14T07:44:35;0.70;;;0.70;;
20699;SDS011;10511;51.232;9.420;2023-06-14T07:47:02;0.80;;;0.80;;
20699;SDS011;10511;51.232;9.420;2023-06-14T07:49:29;0.70;;;0.70;;
20699;SDS011;10511;51.232;9.420;2023-06-14T07:51:56;0.80;;;0.80;;
20699;SDS011;10511;51.232;9.420;2023-06-14T07:54:23;0.73;;;0.73;;
20699;SDS011;10511;51.232;9.420;2023-06-14T07:56:51;0.70;;;0.70;;
20699;SDS011;10511;51.232;9.420;2023-06-14T07:59:19;0.70;;;0.70;;
20699;SDS011;10511;51.232;9.420;2023-06-14T08:01:46;0.70;;;0.70;;
20699;SDS011;10511;51.232;9.420;2023-06-14T08:04:13;0.70;;;0.70;;
20699;SDS011;10511;51.232;9.420;2023-06-14T08:06:41;0.70;;;0.70;;
20699;SDS011;10511;51.232;9.420;2023-06-14T08:09:09;0.70;;;0.70;;
20699;SDS011;10511;51.232;9.420;2023-06-14T08:11:36;0.70;;;0.70;;
20699;SDS011;10511;51.232;9.420;2023-06-14T08:14:03;0.70;;;0.70;;
20699;SDS011;10511;51.232;9.420;2023-06-14T08:16:31;0.80;;;0.80;;
20699;SDS011;10511;51.232;9.420;2023-06-14T08:18:58;0.70;;;0.70;;
20699;SDS011;10511;51.232;9.420;2023-06-14T08:21:26;0.80;;;0.80;;
20699;SDS011;10511;51.232;9.420;2023-06-14T08:23:54;0.80;;;0.80;;
20699;SDS011;10511;51.232;9.420;2023-06-14T08:26:21;0.77;;;0.77;;
20699;SDS011;10511;51.232;9.420;2023-06-14T08:28:48;0.70;;;0.70;;
20699;SDS011;10511;51.232;9.420;2023-06-14T08:31:14;0.70;;;0.70;;
20699;SDS011;10511;51.232;9.420;2023-06-14T08:33:43;0.80;;;0.80;;
20699;SDS011;10511;51.232;9.420;2023-06-14T08:36:10;0.80;;;0.80;;
20699;SDS011;10511;51.232;9.420;2023-06-14T08:38:37;0.80;;;0.80;;
20699;SDS011;10511;51.232;9.420;2023-06-14T08:41:04;0.80;;;0.80;;
20699;SDS011;10511;51.232;9.420;2023-06-14T08:43:32;0.70;;;0.70;;
20699;SDS011;10511;51.232;9.420;2023-06-14T08:46:00;0.80;;;0.80;;
20699;SDS011;10511;51.232;9.420;2023-06-14T08:48:29;0.80;;;0.80;;
20699;SDS011;10511;51.232;9.420;2023-06-14T08:51:00;0.70;;;0.70;;
20699;SDS011;10511;51.232;9.420;2023-06-14T08:53:28;0.70;;;0.70;;
20699;SDS011;10511;51.232;9.420;2023-06-14T08:55:58;0.70;;;0.70;;
20699;SDS011;10511;51.232;9.420;2023-06-14T08:58:26;0.80;;;0.80;;
20699;SDS011;10511;51.232;9.420;2023-06-14T09:00:54;0.70;;;0.70;;
20699;SDS011;10511;51.232;9.420;2023-06-14T09:03:22;0.70;;;0.70;;
20699;SDS011;10511;51.232;9.420;2023-06-14T09:05:55;0.70;;;0.70;;
20699;SDS011;10511;51.232;9.420;2023-06-14T09:08:25;0.80;;;0.80;;
20699;SDS011;10511;51.232;9.420;2023-06-14T09:10:55;0.70;;;0.70;;
20699;SDS011;10511;51.232;9.420;2023-06-14T09:13:22;0.70;;;0.70;;
20699;SDS011;10511;51.232;9.420;2023-06-14T09:15:49;0.70;;;0.70;;
20699;SDS011;10511;51.232;9.420;2023-06-14T09:18:17;0.70;;;0.70;;
20699;SDS011;10511;51.232;9.420;2023-06-14T09:20:46;0.70;;;0.70;;
20699;SDS011;10511;51.232;9.420;2023-06-14T09:23:13;0.70;;;0.70;;
20699;SDS011;10511;51.232;9.420;2023-06-14T09:25:47;0.73;;;0.73;;
20699;SDS011;10511;51.232;9.420;2023-06-14T09:28:14;0.70;;;0.70;;
20699;SDS011;10511;51.232;9.420;2023-06-14T09:30:41;0.70;;;0.70;;
20699;SDS011;10511;51.232;9.420;2023-06-14T09:33:08;0.70;;;0.70;;
20699;SDS011;10511;51.232;9.420;2023-06-14T09:35:35;0.70;;;0.70;;
20699;SDS011;10511;51.232;9.420;2023-06-14T09:38:02;0.70;;;0.70;;
20699;SDS011;10511;51.232;9.420;2023-06-14T09:40:31;0.70;;;0.70;;
20699;SDS011;10511;51.232;9.420;2023-06-14T09:43:02;0.70;;;0.70;;
20699;SDS011;10511;51.232;9.420;2023-06-14T09:45:31;0.80;;;0.80;;
20699;SDS011;10511;51.232;9.420;2023-06-14T09:47:59;0.80;;;0.80;;
20699;SDS011;10511;51.232;9.420;2023-06-14T09:50:27;0.70;;;0.70;;
20699;SDS011;10511;51.232;9.420;2023-06-14T09:52:53;0.80;;;0.80;;
20699;SDS011;10511;51.232;9.420;2023-06-14T09:55:26;0.70;;;0.70;;
20699;SDS011;10511;51.232;9.420;2023-06-14T09:57:55;0.70;;;0.70;;
20699;SDS011;10511;51.232;9.420;2023-06-14T10:00:25;0.70;;;0.70;;
20699;SDS011;10511;51.232;9.420;2023-06-14T10:02:54;0.70;;;0.70;;
20699;SDS011;10511;51.232;9.420;2023-06-14T10:05:26;0.70;;;0.70;;
20699;SDS011;10511;51.232;9.420;2023-06-14T10:07:55;0.70;;;0.70;;
20699;SDS011;10511;51.232;9.420;2023-06-14T10:10:25;0.70;;;0.70;;
20699;SDS011;10511;51.232;9.420;2023-06-14T10:12:52;0.70;;;0.70;;
20699;SDS011;10511;51.232;9.420;2023-06-14T10:15:20;0.70;;;0.70;;
20699;SDS011;10511;51.232;9.420;2023-06-14T10:17:57;0.70;;;0.70;;
20699;SDS011;10511;51.232;9.420;2023-06-14T10:20:30;0.70;;;0.70;;
20699;SDS011;10511;51.232;9.420;2023-06-14T10:23:03;0.70;;;0.70;;
20699;SDS011;10511;51.232;9.420;2023-06-14T10:25:33;0.70;;;0.70;;
20699;SDS011;10511;51.232;9.420;2023-06-14T10:28:16;0.67;;;0.67;;
20699;SDS011;10511;51.232;9.420;2023-06-14T10:31:07;0.70;;;0.70;;
20699;SDS011;10511;51.232;9.420;2023-06-14T10:33:35;0.70;;;0.70;;
20699;SDS011;10511;51.232;9.420;2023-06-14T10:36:24;0.80;;;0.80;;
20699;SDS011;10511;51.232;9.420;2023-06-14T10:38:59;0.60;;;0.60;;
20699;SDS011;10511;51.232;9.420;2023-06-14T10:41:30;0.67;;;0.67;;
20699;SDS011;10511;51.232;9.420;2023-06-14T10:44:10;0.70;;;0.70;;
20699;SDS011;10511;51.232;9.420;2023-06-14T10:47:10;0.67;;;0.67;;
20699;SDS011;10511;51.232;9.420;2023-06-14T10:49:49;0.70;;;0.70;;
20699;SDS011;10511;51.232;9.420;2023-06-14T10:52:20;0.63;;;0.63;;
20699;SDS011;10511;51.232;9.420;2023-06-14T10:54:55;0.70;;;0.70;;
20699;SDS011;10511;51.232;9.420;2023-06-14T10:57:34;0.63;;;0.63;;
20699;SDS011;10511;51.232;9.420;2023-06-14T11:00:02;0.60;;;0.60;;
20699;SDS011;10511;51.232;9.420;2023-06-14T11:02:45;0.67;;;0.67;;
20699;SDS011;10511;51.232;9.420;2023-06-14T11:05:27;0.60;;;0.60;;
20699;SDS011;10511;51.232;9.420;2023-06-14T11:07:58;0.60;;;0.60;;
20699;SDS011;10511;51.232;9.420;2023-06-14T11:10:41;0.70;;;0.70;;
20699;SDS011;10511;51.232;9.420;2023-06-14T11:13:10;0.60;;;0.60;;
20699;SDS011;10511;51.232;9.420;2023-06-14T11:15:38;0.70;;;0.70;;
20699;SDS011;10511;51.232;9.420;2023-06-14T11:18:10;0.60;;;0.60;;
20699;SDS011;10511;51.232;9.420;2023-06-14T11:20:39;0.60;;;0.60;;
20699;SDS011;10511;51.232;9.420;2023-06-14T11:23:06;0.60;;;0.60;;
20699;SDS011;10511;51.232;9.420;2023-06-14T11:25:33;0.67;;;0.67;;
20699;SDS011;10511;51.232;9.420;2023-06-14T11:28:00;0.70;;;0.70;;
20699;SDS011;10511;51.232;9.420;2023-06-14T11:30:27;0.60;;;0.60;;
20699;SDS011;10511;51.232;9.420;2023-06-14T11:32:54;0.60;;;0.60;;
20699;SDS011;10511;51.232;9.420;2023-06-14T11:35:23;0.70;;;0.70;;
20699;SDS011;10511;51.232;9.420;2023-06-14T11:37:52;0.60;;;0.60;;
20699;SDS011;10511;51.232;9.420;2023-06-14T11:40:24;0.60;;;0.60;;
20699;SDS011;10511;51.232;9.420;2023-06-14T11:42:57;0.60;;;0.60;;
20699;SDS011;10511;51.232;9.420;2023-06-14T11:45:25;0.60;;;0.60;;
20699;SDS011;10511;51.232;9.420;2023-06-14T11:47:53;0.50;;;0.50;;
20699;SDS011;10511;51.232;9.420;2023-06-14T11:50:23;0.60;;;0.60;;
20699;SDS011;10511;51.232;9.420;2023-06-14T11:52:54;0.60;;;0.60;;
20699;SDS011;10511;51.232;9.420;2023-06-14T11:55:22;0.70;;;0.70;;
20699;SDS011;10511;51.232;9.420;2023-06-14T11:57:49;0.60;;;0.60;;
20699;SDS011;10511;51.232;9.420;2023-06-14T12:00:16;0.70;;;0.70;;
20699;SDS011;10511;51.232;9.420;2023-06-14T12:02:52;0.60;;;0.60;;
20699;SDS011;10511;51.232;9.420;2023-06-14T12:05:20;0.60;;;0.60;;
20699;SDS011;10511;51.232;9.420;2023-06-14T12:07:49;0.60;;;0.60;;
20699;SDS011;10511;51.232;9.420;2023-06-14T12:10:18;0.53;;;0.53;;
20699;SDS011;10511;51.232;9.420;2023-06-14T12:12:45;0.60;;;0.60;;
20699;SDS011;10511;51.232;9.420;2023-06-14T12:15:12;0.60;;;0.60;;
20699;SDS011;10511;51.232;9.420;2023-06-14T12:17:39;0.60;;;0.60;;
20699;SDS011;10511;51.232;9.420;2023-06-14T12:20:09;0.60;;;0.60;;
20699;SDS011;10511;51.232;9.420;2023-06-14T12:22:39;0.60;;;0.60;;
20699;SDS011;10511;51.232;9.420;2023-06-14T12:25:24;0.60;;;0.60;;
20699;SDS011;10511;51.232;9.420;2023-06-14T12:27:56;0.60;;;0.60;;
20699;SDS011;10511;51.232;9.420;2023-06-14T12:30:23;0.60;;;0.60;;
20699;SDS011;10511;51.232;9.420;2023-06-14T12:32:50;0.60;;;0.60;;
20699;SDS011;10511;51.232;9.420;2023-06-14T12:35:17;0.60;;;0.60;;
20699;SDS011;10511;51.232;9.420;2023-06-14T12:37:45;0.60;;;0.60;;
20699;SDS011;10511;51.232;9.420;2023-06-14T12:40:11;0.60;;;0.60;;
20699;SDS011;10511;51.232;9.420;2023-06-14T12:42:40;0.60;;;0.60;;
20699;SDS011;10511;51.232;9.420;2023-06-14T12:45:07;0.50;;;0.50;;
20699;SDS011;10511;51.232;9.420;2023-06-14T12:47:36;0.60;;;0.60;;
20699;SDS011;10511;51.232;9.420;2023-06-14T12:50:03;0.60;;;0.60;;
20699;SDS011;10511;51.232;9.420;2023-06-14T12:52:31;0.60;;;0.60;;
20699;SDS011;10511;51.232;9.420;2023-06-14T12:55:00;0.60;;;0.60;;
20699;SDS011;10511;51.232;9.420;2023-06-14T12:57:28;0.60;;;0.60;;
20699;SDS011;10511;51.232;9.420;2023-06-14T12:59:56;0.60;;;0.60;;
20699;SDS011;10511;51.232;9.420;2023-06-14T13:02:23;0.50;;;0.50;;
20699;SDS011;10511;51.232;9.420;2023-06-14T13:04:50;0.60;;;0.60;;
20699;SDS011;10511;51.232;9.420;2023-06-14T13:07:17;0.50;;;0.50;;
20699;SDS011;10511;51.232;9.420;2023-06-14T13:09:44;0.60;;;0.60;;
20699;SDS011;10511;51.232;9.420;2023-06-14T13:12:11;0.60;;;0.60;;
20699;SDS011;10511;51.232;9.420;2023-06-14T13:14:38;0.60;;;0.60;;
20699;SDS011;10511;51.232;9.420;2023-06-14T13:17:07;0.60;;;0.60;;
20699;SDS011;10511;51.232;9.420;2023-06-14T13:19:34;0.60;;;0.60;;
20699;SDS011;10511;51.232;9.420;2023-06-14T13:22:02;0.60;;;0.60;;
20699;SDS011;10511;51.232;9.420;2023-06-14T13:24:30;0.60;;;0.60;;
20699;SDS011;10511;51.232;9.420;2023-06-14T13:26:56;0.60;;;0.60;;
20699;SDS011;10511;51.232;9.420;2023-06-14T13:29:24;0.60;;;0.60;;
20699;SDS011;10511;51.232;9.420;2023-06-14T13:31:51;0.60;;;0.60;;
20699;SDS011;10511;51.232;9.420;2023-06-14T13:34:20;0.70;;;0.70;;
20699;SDS011;10511;51.232;9.420;2023-06-14T13:36:46;0.70;;;0.70;;
20699;SDS011;10511;51.232;9.420;2023-06-14T13:39:14;0.60;;;0.60;;
20699;SDS011;10511;51.232;9.420;2023-06-14T13:41:41;0.60;;;0.60;;
20699;SDS011;10511;51.232;9.420;2023-06-14T13:44:08;0.63;;;0.63;;
20699;SDS011;10511;51.232;9.420;2023-06-14T13:46:36;0.60;;;0.60;;
20699;SDS011;10511;51.232;9.420;2023-06-14T13:49:03;0.70;;;0.70;;
20699;SDS011;10511;51.232;9.420;2023-06-14T13:51:31;0.60;;;0.60;;
20699;SDS011;10511;51.232;9.420;2023-06-14T13:54:00;0.60;;;0.60;;
20699;SDS011;10511;51.232;9.420;2023-06-14T13:56:27;0.60;;;0.60;;
20699;SDS011;10511;51.232;9.420;2023-06-14T13:58:55;0.60;;;0.60;;
20699;SDS011;10511;51.232;9.420;2023-06-14T14:01:22;0.60;;;0.60;;
20699;SDS011;10511;51.232;9.420;2023-06-14T14:03:48;0.50;;;0.50;;
20699;SDS011;10511;51.232;9.420;2023-06-14T14:06:15;0.60;;;0.60;;
20699;SDS011;10511;51.232;9.420;2023-06-14T14:08:44;0.60;;;0.60;;
20699;SDS011;10511;51.232;9.420;2023-06-14T14:11:10;0.60;;;0.60;;
20699;SDS011;10511;51.232;9.420;2023-06-14T14:13:38;0.60;;;0.60;;
20699;SDS011;10511;51.232;9.420;2023-06-14T14:16:05;0.60;;;0.60;;
20699;SDS011;10511;51.232;9.420;2023-06-14T14:18:32;0.60;;;0.60;;
20699;SDS011;10511;51.232;9.420;2023-06-14T14:21:00;0.70;;;0.70;;
20699;SDS011;10511;51.232;9.420;2023-06-14T14:23:27;0.70;;;0.70;;
20699;SDS011;10511;51.232;9.420;2023-06-14T14:25:55;0.60;;;0.60;;
20699;SDS011;10511;51.232;9.420;2023-06-14T14:28:22;0.60;;;0.60;;
20699;SDS011;10511;51.232;9.420;2023-06-14T14:30:50;0.67;;;0.67;;
20699;SDS011;10511;51.232;9.420;2023-06-14T14:33:18;0.70;;;0.70;;
20699;SDS011;10511;51.232;9.420;2023-06-14T14:35:45;0.60;;;0.60;;
20699;SDS011;10511;51.232;9.420;2023-06-14T14:38:12;0.53;;;0.53;;
20699;SDS011;10511;51.232;9.420;2023-06-14T14:40:39;0.60;;;0.60;;
20699;SDS011;10511;51.232;9.420;2023-06-14T14:43:07;0.60;;;0.60;;
20699;SDS011;10511;51.232;9.420;2023-06-14T14:45:34;0.60;;;0.60;;
20699;SDS011;10511;51.232;9.420;2023-06-14T14:48:02;0.70;;;0.70;;
20699;SDS011;10511;51.232;9.420;2023-06-14T14:50:29;0.60;;;0.60;;
20699;SDS011;10511;51.232;9.420;2023-06-14T14:52:56;0.60;;;0.60;;
20699;SDS011;10511;51.232;9.420;2023-06-14T14:55:23;0.70;;;0.70;;
20699;SDS011;10511;51.232;9.420;2023-06-14T14:57:50;0.70;;;0.70;;